San Benito, Argentina
Current Conditions -  °F | °C
As of 6:00 AM on Thursday 23 Oct 2014 (Local Time) from SAEZ Reporting Station
Clear Clear  
Wind Chill: 66°   Ceiling: Unl
Heat Index: 66°   Visibility: 6mi
Dew Point: 59°   Wind: 2mph
Humidity: 78%   Direction: 360°N
Pressure: 30"   Gusts: NA
Location:  35.67°S, 59.9°W
Report Text: SAEZ 230900Z 36002KT CAVOK 19/15 Q1016
Loading
Personal Weather Stations






























Interactive Weather Map
Tropical Storm Tracking
New forecast layout! Learn more

10-Day Weather Forecast

Advertisements
Track Severe Weather on mobile